Varna, Illinois
Current Conditions -  °F | °C
As of 8:35 AM on Friday 28 Nov 2014 (Local Time) from KC75 Reporting Station
Clear Clear  
Wind Chill: 12°   Ceiling: Unl
Heat Index: 23°   Visibility: 10mi
Dew Point: 14°   Wind: 10mph
Humidity: 68%   Direction: 140°SE
Pressure: 30.2"   Gusts: NA
Location:  41.04°N, 89.23°W
Report Text: KC75 281435Z AUTO 14009KT 10SM CLR M05/M10 A3020 RMK AO2 T10511102
Loading
Personal Weather Stations






























Interactive Weather Map New forecast layout! Learn more

10-Day Weather Forecast

Advertisements
Track Severe Weather on mobile